Time;durP1;ratioP1;P1;durP2;ratioP2;P2;SDS_P1;SDS_P2;PMS_P1;PMS_P2;Temp;Humidity;BMP_temperature;BMP_pressure;BME280_temperature;BME280_humidity;BME280_pressure;Samples;Min_cycle;Max_cycle;Signal;HPM_P1;HPM_P2
2023/09/29 00:02:03;;;;;;;;;2.00;2.00;;;;;;;;5131521;27;8784;-83
2023/09/29 00:04:28;;;;;;;;;3.67;2.00;;;;;;;;5143704;27;8792;-83
2023/09/29 00:06:54;;;;;;;;;1.00;1.00;;;;;;;;5141427;27;8805;-83
2023/09/29 00:09:19;;;;;;;;;2.00;2.00;;;;;;;;5126687;27;8837;-83
2023/09/29 00:11:45;;;;;;;;;3.33;2.33;;;;;;;;5135359;27;8866;-83
2023/09/29 00:14:10;;;;;;;;;1.67;1.67;;;;;;;;5144109;27;8896;-83
2023/09/29 00:16:35;;;;;;;;;1.00;1.00;;;;;;;;5127717;27;8809;-82
2023/09/29 00:19:01;;;;;;;;;3.00;2.00;;;;;;;;5123434;28;8805;-83
2023/09/29 00:21:26;;;;;;;;;2.00;2.00;;;;;;;;5123515;27;8807;-83
2023/09/29 00:23:51;;;;;;;;;3.33;2.67;;;;;;;;5122440;28;8781;-83
2023/09/29 00:26:16;;;;;;;;;4.50;3.00;;;;;;;;5125112;27;8854;-82
2023/09/29 00:28:41;;;;;;;;;2.00;1.00;;;;;;;;5121708;28;8808;-83
2023/09/29 00:31:08;;;;;;;;;2.33;2.00;;;;;;;;5130627;27;8792;-83
2023/09/29 00:33:33;;;;;;;;;6.00;2.00;;;;;;;;5142033;27;10147;-83
2023/09/29 00:36:02;;;;;;;;;5.00;2.00;;;;;;;;5133982;27;9490;-83
2023/09/29 00:38:27;;;;;;;;;4.00;4.00;;;;;;;;5122493;27;8771;-83
2023/09/29 00:40:52;;;;;;;;;5.00;3.00;;;;;;;;5122942;27;9058;-83
2023/09/29 00:43:17;;;;;;;;;3.00;2.00;;;;;;;;5123051;27;8940;-83
2023/09/29 00:45:43;;;;;;;;;3.00;3.00;;;;;;;;5140985;27;8824;-83
2023/09/29 00:48:10;;;;;;;;;1.67;1.67;;;;;;;;5134398;27;8902;-83
2023/09/29 00:50:36;;;;;;;;;4.00;2.00;;;;;;;;5125681;27;8745;-83
2023/09/29 00:53:07;;;;;;;;;3.67;3.00;;;;;;;;5140742;27;10095;-82
2023/09/29 00:55:32;;;;;;;;;3.67;2.33;;;;;;;;5100222;28;10250;-83
2023/09/29 00:57:58;;;;;;;;;1.00;1.00;;;;;;;;5102450;28;9415;-83
2023/09/29 01:00:31;;;;;;;;;2.00;2.00;;;;;;;;5101129;28;8769;-83
2023/09/29 01:02:56;;;;;;;;;4.00;2.00;;;;;;;;5119467;27;10420;-83
2023/09/29 01:05:21;;;;;;;;;1.67;1.67;;;;;;;;5130356;27;9276;-83
2023/09/29 01:07:47;;;;;;;;;4.00;2.00;;;;;;;;5125562;28;8791;-83
2023/09/29 01:10:15;;;;;;;;;2.00;2.00;;;;;;;;5137585;27;8812;-83
2023/09/29 01:12:41;;;;;;;;;2.00;2.00;;;;;;;;5134225;27;8744;-83
2023/09/29 01:15:07;;;;;;;;;3.33;2.33;;;;;;;;5127998;27;9410;-83
2023/09/29 01:17:32;;;;;;;;;3.67;2.67;;;;;;;;5126623;27;8807;-83
2023/09/29 01:19:57;;;;;;;;;2.67;2.00;;;;;;;;5142341;27;9452;-83
2023/09/29 01:22:23;;;;;;;;;1.67;1.67;;;;;;;;5133534;27;9901;-83
2023/09/29 01:24:48;;;;;;;;;1.67;1.67;;;;;;;;5122766;27;8812;-83
2023/09/29 01:27:13;;;;;;;;;2.00;2.00;;;;;;;;5122953;28;8923;-83
2023/09/29 01:29:42;;;;;;;;;2.00;2.00;;;;;;;;5124860;27;8808;-83
2023/09/29 01:32:12;;;;;;;;;2.00;2.00;;;;;;;;5125511;27;8796;-83
2023/09/29 01:34:38;;;;;;;;;1.00;1.00;;;;;;;;5131586;27;9508;-83
2023/09/29 01:37:04;;;;;;;;;1.67;1.67;;;;;;;;5123747;28;9330;-83
2023/09/29 01:39:29;;;;;;;;;2.67;2.00;;;;;;;;5124546;28;8794;-83
2023/09/29 01:41:54;;;;;;;;;2.00;2.00;;;;;;;;5124251;27;9968;-83
2023/09/29 01:44:20;;;;;;;;;3.33;1.00;;;;;;;;5139697;27;8804;-82
2023/09/29 01:46:46;;;;;;;;;2.33;2.33;;;;;;;;5146573;27;8804;-83
2023/09/29 01:49:11;;;;;;;;;4.33;3.33;;;;;;;;5142852;27;8745;-82
2023/09/29 01:51:37;;;;;;;;;2.33;2.33;;;;;;;;5123564;27;10355;-83
2023/09/29 01:54:02;;;;;;;;;2.67;2.67;;;;;;;;5131990;27;8788;-83
2023/09/29 01:56:28;;;;;;;;;3.25;2.00;;;;;;;;5144429;27;8823;-83
2023/09/29 01:58:54;;;;;;;;;3.00;3.00;;;;;;;;5140240;27;8777;-83
2023/09/29 02:01:19;;;;;;;;;2.00;2.00;;;;;;;;5139051;27;9907;-83
2023/09/29 02:03:45;;;;;;;;;2.00;1.00;;;;;;;;5130313;27;8843;-83
2023/09/29 02:06:10;;;;;;;;;4.00;3.00;;;;;;;;5139418;27;8772;-82
2023/09/29 02:08:35;;;;;;;;;3.00;2.00;;;;;;;;5145933;27;8772;-83
2023/09/29 02:11:00;;;;;;;;;1.00;1.00;;;;;;;;5144290;27;9937;-83
2023/09/29 02:13:26;;;;;;;;;1.00;1.00;;;;;;;;5145566;27;8848;-82
2023/09/29 02:15:52;;;;;;;;;2.25;2.25;;;;;;;;5145806;27;9503;-83
2023/09/29 02:18:17;;;;;;;;;6.33;1.67;;;;;;;;5145926;27;8811;-83
2023/09/29 02:20:46;;;;;;;;;3.33;1.33;;;;;;;;5141166;27;8869;-83
2023/09/29 02:23:14;;;;;;;;;3.00;2.33;;;;;;;;5144528;27;8757;-83
2023/09/29 02:25:41;;;;;;;;;1.00;1.00;;;;;;;;5141739;27;9356;-83
2023/09/29 02:28:09;;;;;;;;;1.00;1.00;;;;;;;;5145992;27;10405;-83
2023/09/29 02:30:34;;;;;;;;;1.00;1.00;;;;;;;;5143682;27;10060;-83
2023/09/29 02:32:59;;;;;;;;;1.33;1.33;;;;;;;;5134496;27;9395;-83
2023/09/29 02:35:25;;;;;;;;;1.00;1.00;;;;;;;;5116864;27;8883;-83
2023/09/29 02:37:52;;;;;;;;;4.00;1.00;;;;;;;;5124908;28;8785;-83
2023/09/29 02:40:18;;;;;;;;;1.00;1.00;;;;;;;;5119544;27;8730;-82
2023/09/29 02:42:44;;;;;;;;;2.00;0.33;;;;;;;;5102625;28;9341;-82
2023/09/29 02:45:10;;;;;;;;;2.00;2.00;;;;;;;;5102934;28;8975;-83
2023/09/29 02:47:35;;;;;;;;;1.33;1.00;;;;;;;;5113269;27;9387;-83
2023/09/29 02:50:00;;;;;;;;;3.00;1.00;;;;;;;;5136020;27;8867;-82
2023/09/29 02:52:29;;;;;;;;;3.00;0.00;;;;;;;;5123303;28;8793;-82
2023/09/29 02:54:54;;;;;;;;;1.00;1.00;;;;;;;;5142835;27;8814;-82
2023/09/29 02:57:22;;;;;;;;;1.67;1.00;;;;;;;;5143702;27;9409;-83
2023/09/29 02:59:48;;;;;;;;;0.67;0.67;;;;;;;;5132491;27;8802;-82
2023/09/29 03:02:13;;;;;;;;;2.00;1.00;;;;;;;;5132430;27;9440;-81
2023/09/29 03:04:39;;;;;;;;;0.67;0.67;;;;;;;;5124177;28;8921;-81
2023/09/29 03:07:05;;;;;;;;;1.00;0.00;;;;;;;;5141444;27;8784;-81
2023/09/29 03:09:33;;;;;;;;;2.00;1.00;;;;;;;;5144325;27;9231;-81
2023/09/29 03:11:59;;;;;;;;;1.00;0.00;;;;;;;;5132864;27;9353;-82
2023/09/29 03:14:25;;;;;;;;;1.00;1.00;;;;;;;;5144969;27;9339;-82
2023/09/29 03:16:50;;;;;;;;;0.67;0.67;;;;;;;;5140252;27;11454;-81
2023/09/29 03:19:15;;;;;;;;;0.67;0.67;;;;;;;;5125235;27;8821;-81
2023/09/29 03:21:40;;;;;;;;;1.33;1.00;;;;;;;;5144893;27;8796;-82
2023/09/29 03:24:08;;;;;;;;;2.33;1.00;;;;;;;;5135998;27;9140;-81
2023/09/29 03:26:34;;;;;;;;;2.00;1.00;;;;;;;;5121861;28;8796;-82
2023/09/29 03:28:59;;;;;;;;;3.00;2.00;;;;;;;;5123468;27;9589;-81
2023/09/29 03:31:26;;;;;;;;;5.00;1.00;;;;;;;;5124313;27;9580;-81
2023/09/29 03:33:52;;;;;;;;;0.67;0.00;;;;;;;;5144826;27;8741;-83
2023/09/29 03:36:20;;;;;;;;;2.33;0.67;;;;;;;;5135408;27;9437;-83
2023/09/29 03:38:45;;;;;;;;;1.00;1.00;;;;;;;;5142020;27;10299;-83
2023/09/29 03:41:11;;;;;;;;;1.00;1.00;;;;;;;;5143224;27;9474;-83
2023/09/29 03:43:36;;;;;;;;;0.33;0.33;;;;;;;;5127761;27;8816;-83
2023/09/29 03:46:01;;;;;;;;;2.00;1.67;;;;;;;;5123596;27;8858;-82
2023/09/29 03:48:28;;;;;;;;;2.00;0.00;;;;;;;;5128776;27;8864;-83
2023/09/29 03:50:54;;;;;;;;;3.00;2.00;;;;;;;;5142929;27;8749;-83
2023/09/29 03:53:19;;;;;;;;;1.33;1.00;;;;;;;;5139146;27;9502;-83
2023/09/29 03:55:47;;;;;;;;;2.33;1.00;;;;;;;;5122853;27;8898;-82
2023/09/29 03:58:14;;;;;;;;;1.00;1.00;;;;;;;;5122311;28;10189;-83
2023/09/29 04:00:39;;;;;;;;;0.00;0.00;;;;;;;;5129914;27;9373;-82
2023/09/29 04:03:06;;;;;;;;;2.67;2.00;;;;;;;;5136898;27;9294;-83
2023/09/29 04:05:31;;;;;;;;;3.00;1.33;;;;;;;;5144194;27;8741;-83
2023/09/29 04:07:57;;;;;;;;;6.00;2.00;;;;;;;;5140364;27;10043;-83
2023/09/29 04:10:22;;;;;;;;;1.00;1.00;;;;;;;;5123096;28;8844;-82
2023/09/29 04:12:47;;;;;;;;;1.67;1.00;;;;;;;;5122320;28;9411;-83
2023/09/29 04:15:13;;;;;;;;;3.33;2.00;;;;;;;;5122683;27;8821;-83
2023/09/29 04:17:39;;;;;;;;;1.67;1.00;;;;;;;;5131235;27;8796;-82
2023/09/29 04:20:05;;;;;;;;;2.00;2.00;;;;;;;;5144149;27;8788;-83
2023/09/29 04:22:30;;;;;;;;;2.25;2.25;;;;;;;;5141886;27;8761;-83
2023/09/29 04:24:56;;;;;;;;;4.00;2.00;;;;;;;;5126628;27;9535;-82
2023/09/29 04:27:21;;;;;;;;;1.75;1.75;;;;;;;;5143060;27;8816;-83
2023/09/29 04:29:46;;;;;;;;;3.00;1.00;;;;;;;;5143183;27;9599;-82
2023/09/29 04:32:12;;;;;;;;;7.50;2.75;;;;;;;;5129799;27;8824;-83
2023/09/29 04:34:37;;;;;;;;;2.00;2.00;;;;;;;;5130884;27;8810;-83
2023/09/29 04:37:02;;;;;;;;;3.67;1.67;;;;;;;;5142819;27;8819;-83
2023/09/29 04:39:27;;;;;;;;;4.25;2.25;;;;;;;;5144128;27;8922;-83
2023/09/29 04:41:53;;;;;;;;;2.25;1.00;;;;;;;;5140718;27;8808;-83
2023/09/29 04:44:18;;;;;;;;;3.67;2.00;;;;;;;;5124516;28;8827;-83
2023/09/29 04:46:44;;;;;;;;;2.00;2.00;;;;;;;;5126516;27;8777;-83
2023/09/29 04:49:09;;;;;;;;;4.00;2.00;;;;;;;;5144290;27;8939;-83
2023/09/29 04:51:36;;;;;;;;;5.67;3.33;;;;;;;;5137767;27;8880;-83
2023/09/29 04:54:02;;;;;;;;;3.00;2.25;;;;;;;;5124966;28;8822;-83
2023/09/29 04:56:27;;;;;;;;;3.00;3.00;;;;;;;;5140774;27;10025;-83
2023/09/29 04:58:52;;;;;;;;;2.75;1.00;;;;;;;;5145132;27;8824;-83
2023/09/29 05:01:18;;;;;;;;;3.00;2.75;;;;;;;;5142022;27;8818;-82
2023/09/29 05:03:44;;;;;;;;;4.33;1.33;;;;;;;;5134588;27;8803;-83
2023/09/29 05:06:09;;;;;;;;;3.67;2.00;;;;;;;;5134597;27;9980;-83
2023/09/29 05:08:36;;;;;;;;;4.00;2.00;;;;;;;;5144723;27;8820;-76
2023/09/29 05:11:01;;;;;;;;;1.67;1.33;;;;;;;;5138225;27;8808;-75
2023/09/29 05:13:32;;;;;;;;;3.00;3.00;;;;;;;;5126875;27;9482;-88
2023/09/29 05:16:01;;;;;;;;;4.00;2.00;;;;;;;;5137434;27;8793;-79
2023/09/29 05:18:31;;;;;;;;;2.33;2.33;;;;;;;;5126367;27;9420;-79
2023/09/29 05:20:56;;;;;;;;;3.00;2.00;;;;;;;;5143214;27;9564;-77
2023/09/29 05:23:21;;;;;;;;;3.00;1.00;;;;;;;;5144867;27;10715;-78
2023/09/29 05:25:47;;;;;;;;;5.75;2.25;;;;;;;;5137443;27;8844;-78
2023/09/29 05:28:12;;;;;;;;;4.00;1.67;;;;;;;;5124308;27;8854;-81
2023/09/29 05:30:37;;;;;;;;;2.00;2.00;;;;;;;;5129905;27;8958;-84
2023/09/29 05:33:03;;;;;;;;;5.25;3.00;;;;;;;;5145806;27;8837;-81
2023/09/29 05:35:28;;;;;;;;;3.00;1.67;;;;;;;;5145570;27;9485;-77
2023/09/29 05:37:53;;;;;;;;;5.00;3.00;;;;;;;;5133070;27;8842;-79
2023/09/29 05:40:18;;;;;;;;;5.00;2.00;;;;;;;;5126245;27;8752;-85
2023/09/29 05:42:44;;;;;;;;;3.00;3.00;;;;;;;;5124133;27;9036;-81
2023/09/29 05:45:09;;;;;;;;;4.50;3.50;;;;;;;;5121931;27;9944;-80
2023/09/29 05:47:35;;;;;;;;;8.75;4.50;;;;;;;;5125239;27;8826;-80
2023/09/29 05:50:00;;;;;;;;;6.00;3.50;;;;;;;;5116639;27;8833;-80
2023/09/29 05:52:25;;;;;;;;;5.00;3.75;;;;;;;;5138505;27;9548;-81
2023/09/29 05:54:50;;;;;;;;;8.75;3.50;;;;;;;;5124615;27;8856;-80
2023/09/29 05:57:16;;;;;;;;;6.50;5.00;;;;;;;;5122589;27;8799;-80
2023/09/29 05:59:41;;;;;;;;;9.00;3.00;;;;;;;;5125525;27;8890;-80
2023/09/29 06:02:06;;;;;;;;;3.00;3.00;;;;;;;;5125076;27;8791;-80
2023/09/29 06:04:31;;;;;;;;;9.25;6.25;;;;;;;;5124734;28;8764;-80
2023/09/29 06:06:57;;;;;;;;;5.00;3.00;;;;;;;;5130899;27;8816;-79
2023/09/29 06:09:22;;;;;;;;;7.50;5.00;;;;;;;;5125599;27;8948;-80
2023/09/29 06:11:49;;;;;;;;;7.50;6.00;;;;;;;;5143871;27;8803;-78
2023/09/29 06:14:14;;;;;;;;;8.25;6.00;;;;;;;;5144594;27;9036;-79
2023/09/29 06:16:39;;;;;;;;;7.00;4.33;;;;;;;;5135396;27;9714;-79
2023/09/29 06:19:04;;;;;;;;;4.50;2.50;;;;;;;;5145457;27;8796;-79
2023/09/29 06:21:30;;;;;;;;;4.75;2.75;;;;;;;;5128355;27;8810;-80
2023/09/29 06:23:55;;;;;;;;;9.00;6.00;;;;;;;;5103979;28;8839;-79
2023/09/29 06:26:20;;;;;;;;;6.00;4.25;;;;;;;;5126158;27;8824;-80
2023/09/29 06:28:45;;;;;;;;;5.50;2.25;;;;;;;;5130900;27;8777;-79
2023/09/29 06:31:11;;;;;;;;;10.00;4.75;;;;;;;;5134497;27;8883;-80
2023/09/29 06:33:36;;;;;;;;;12.25;4.50;;;;;;;;5143256;27;10446;-79
2023/09/29 06:36:01;;;;;;;;;7.00;5.00;;;;;;;;5129359;27;8810;-80
2023/09/29 06:38:29;;;;;;;;;6.00;3.75;;;;;;;;5136742;27;8785;-78
2023/09/29 06:40:57;;;;;;;;;5.50;4.00;;;;;;;;5122285;27;8840;-78
2023/09/29 06:43:22;;;;;;;;;7.50;4.00;;;;;;;;5129078;27;9667;-78
2023/09/29 06:45:47;;;;;;;;;7.25;4.00;;;;;;;;5132023;27;9709;-78
2023/09/29 06:48:13;;;;;;;;;4.00;4.00;;;;;;;;5157276;27;8845;-78
2023/09/29 06:50:38;;;;;;;;;7.25;3.75;;;;;;;;5142535;27;8871;-79
2023/09/29 06:53:03;;;;;;;;;7.00;5.00;;;;;;;;5125635;27;8899;-78
2023/09/29 06:55:29;;;;;;;;;9.33;4.33;;;;;;;;5120980;27;8976;-79
2023/09/29 06:57:54;;;;;;;;;5.67;4.67;;;;;;;;5123279;27;8787;-79
2023/09/29 07:00:19;;;;;;;;;2.67;2.33;;;;;;;;5121834;28;8833;-79
2023/09/29 07:02:44;;;;;;;;;8.00;4.00;;;;;;;;5122907;27;8862;-79
2023/09/29 07:05:10;;;;;;;;;6.33;3.00;;;;;;;;5123290;27;8865;-79
2023/09/29 07:07:36;;;;;;;;;4.00;3.00;;;;;;;;5144426;27;8793;-78
2023/09/29 07:10:01;;;;;;;;;4.33;4.00;;;;;;;;5143492;27;8812;-78
2023/09/29 07:12:26;;;;;;;;;6.00;2.00;;;;;;;;5143592;27;8804;-78
2023/09/29 07:14:51;;;;;;;;;6.00;3.75;;;;;;;;5130208;27;8808;-78
2023/09/29 07:17:17;;;;;;;;;5.33;3.67;;;;;;;;5132981;27;8856;-78
2023/09/29 07:19:43;;;;;;;;;5.33;3.67;;;;;;;;5134910;27;9905;-78
2023/09/29 07:22:08;;;;;;;;;3.33;2.33;;;;;;;;5124669;27;10056;-78
2023/09/29 07:24:33;;;;;;;;;4.00;4.00;;;;;;;;5129098;27;8815;-78
2023/09/29 07:26:59;;;;;;;;;4.00;3.00;;;;;;;;5122015;27;8828;-78
2023/09/29 07:29:24;;;;;;;;;10.00;4.00;;;;;;;;5124039;27;8858;-78
2023/09/29 07:31:49;;;;;;;;;3.33;3.33;;;;;;;;5138956;27;8897;-78
2023/09/29 07:34:17;;;;;;;;;4.33;2.00;;;;;;;;5144745;27;8876;-78
2023/09/29 07:36:44;;;;;;;;;4.67;3.67;;;;;;;;5139341;27;8793;-78
2023/09/29 07:39:13;;;;;;;;;4.00;2.67;;;;;;;;5123562;27;9380;-78
2023/09/29 07:41:38;;;;;;;;;7.33;2.67;;;;;;;;5138645;27;9520;-78
2023/09/29 07:44:04;;;;;;;;;5.00;4.33;;;;;;;;5142019;27;9421;-79
2023/09/29 07:46:29;;;;;;;;;3.00;1.00;;;;;;;;5127506;27;8886;-78
2023/09/29 07:48:54;;;;;;;;;5.33;4.33;;;;;;;;5143407;27;8804;-79
2023/09/29 07:51:20;;;;;;;;;5.33;2.00;;;;;;;;5132361;27;10125;-79
2023/09/29 07:53:45;;;;;;;;;3.00;1.00;;;;;;;;5122476;27;8807;-78
2023/09/29 07:56:10;;;;;;;;;3.33;1.00;;;;;;;;5142238;27;8824;-78
2023/09/29 07:58:36;;;;;;;;;4.00;3.00;;;;;;;;5139524;27;8889;-78
2023/09/29 08:01:01;;;;;;;;;2.67;1.00;;;;;;;;5123106;27;8871;-77
2023/09/29 08:03:26;;;;;;;;;3.67;2.00;;;;;;;;5128304;27;8820;-78
2023/09/29 08:05:53;;;;;;;;;3.33;2.00;;;;;;;;5140893;27;9713;-78
2023/09/29 08:08:18;;;;;;;;;3.00;1.67;;;;;;;;5142201;27;8725;-78
2023/09/29 08:10:44;;;;;;;;;3.67;3.00;;;;;;;;5143231;27;9530;-77
2023/09/29 08:13:09;;;;;;;;;2.00;1.00;;;;;;;;5144216;27;8803;-78
2023/09/29 08:15:34;;;;;;;;;0.33;0.33;;;;;;;;5143626;27;8784;-78
2023/09/29 08:18:00;;;;;;;;;3.33;0.67;;;;;;;;5141320;27;8906;-78
2023/09/29 08:20:25;;;;;;;;;1.00;0.00;;;;;;;;5126979;27;8807;-81
2023/09/29 08:22:51;;;;;;;;;1.00;1.00;;;;;;;;5124800;27;8775;-80
2023/09/29 08:25:16;;;;;;;;;5.00;0.33;;;;;;;;5140914;27;8808;-80
2023/09/29 08:27:42;;;;;;;;;8.50;7.25;;;;;;;;5141469;27;8792;-81
2023/09/29 08:30:07;;;;;;;;;29.25;25.00;;;;;;;;5143497;27;8804;-80
2023/09/29 08:32:33;;;;;;;;;23.75;19.25;;;;;;;;5142268;27;8820;-80
2023/09/29 08:34:58;;;;;;;;;23.25;19.25;;;;;;;;5143658;27;9601;-80
2023/09/29 08:37:24;;;;;;;;;27.00;21.25;;;;;;;;5135614;27;9544;-80
2023/09/29 08:39:50;;;;;;;;;51.75;36.50;;;;;;;;5121503;27;9933;-80
2023/09/29 08:42:22;;;;;;;;;40.50;35.50;;;;;;;;5127166;27;8774;-80
2023/09/29 08:44:57;;;;;;;;;35.25;29.75;;;;;;;;5140726;27;10749;-80
2023/09/29 08:47:41;;;;;;;;;18.75;15.75;;;;;;;;5117734;27;10549;-80
2023/09/29 08:50:25;;;;;;;;;13.75;8.25;;;;;;;;5126812;27;10456;-80
2023/09/29 08:53:10;;;;;;;;;4.25;4.25;;;;;;;;5135040;27;9753;-80
2023/09/29 08:55:37;;;;;;;;;2.00;2.00;;;;;;;;5122105;27;9538;-80
2023/09/29 08:58:03;;;;;;;;;1.00;1.00;;;;;;;;5121748;27;9553;-80
2023/09/29 09:00:46;;;;;;;;;1.00;0.00;;;;;;;;5130982;27;10249;-80
2023/09/29 09:03:15;;;;;;;;;0.00;0.00;;;;;;;;5110990;27;8805;-80
2023/09/29 09:05:44;;;;;;;;;0.33;0.00;;;;;;;;5128069;27;9255;-80
2023/09/29 09:08:14;;;;;;;;;0.00;0.00;;;;;;;;5139359;27;10045;-80
2023/09/29 09:10:40;;;;;;;;;0.00;0.00;;;;;;;;5137489;27;10468;-79
2023/09/29 09:13:20;;;;;;;;;0.00;0.00;;;;;;;;5132720;27;8893;-80
2023/09/29 09:15:54;;;;;;;;;0.00;0.00;;;;;;;;5133755;27;9130;-80
2023/09/29 09:18:20;;;;;;;;;0.00;0.00;;;;;;;;5122838;27;8956;-80
2023/09/29 09:20:54;;;;;;;;;0.00;0.00;;;;;;;;5126254;27;9205;-79
2023/09/29 09:23:20;;;;;;;;;1.00;0.00;;;;;;;;5143233;27;9134;-80
2023/09/29 09:25:45;;;;;;;;;0.00;0.00;;;;;;;;5135956;27;9161;-79
2023/09/29 09:28:15;;;;;;;;;1.67;0.00;;;;;;;;5130766;27;8811;-79
2023/09/29 09:30:41;;;;;;;;;0.00;0.00;;;;;;;;5125610;27;8757;-79
2023/09/29 09:33:15;;;;;;;;;1.00;0.00;;;;;;;;5144011;27;9118;-79
2023/09/29 09:35:42;;;;;;;;;0.00;0.00;;;;;;;;5131935;27;9284;-79
2023/09/29 09:38:07;;;;;;;;;1.00;0.00;;;;;;;;5126128;27;9156;-79
2023/09/29 09:40:33;;;;;;;;;1.33;0.00;;;;;;;;5124541;27;10114;-80
2023/09/29 09:43:02;;;;;;;;;0.00;0.00;;;;;;;;5123697;28;8807;-79
2023/09/29 09:45:32;;;;;;;;;1.00;0.00;;;;;;;;5125946;27;8771;-79
2023/09/29 09:48:01;;;;;;;;;0.00;0.00;;;;;;;;5107513;27;9243;-79
2023/09/29 09:50:28;;;;;;;;;0.67;0.67;;;;;;;;5108325;27;9574;-79
2023/09/29 09:52:54;;;;;;;;;0.00;0.00;;;;;;;;5144032;27;9186;-79
2023/09/29 09:55:27;;;;;;;;;0.00;0.00;;;;;;;;5131427;27;9280;-79
2023/09/29 09:57:53;;;;;;;;;1.67;1.00;;;;;;;;5146037;27;8814;-80
2023/09/29 10:00:19;;;;;;;;;0.00;0.00;;;;;;;;5146358;27;9572;-80
2023/09/29 10:02:46;;;;;;;;;0.00;0.00;;;;;;;;5128507;27;9343;-79
2023/09/29 10:05:17;;;;;;;;;1.67;0.33;;;;;;;;5131733;27;10836;-79
2023/09/29 10:07:45;;;;;;;;;0.00;0.00;;;;;;;;5131019;27;9427;-79
2023/09/29 10:10:22;;;;;;;;;0.00;0.00;;;;;;;;5139610;27;10277;-81
2023/09/29 10:12:52;;;;;;;;;0.33;0.00;;;;;;;;5134971;27;9436;-78
2023/09/29 10:15:18;;;;;;;;;1.00;0.67;;;;;;;;5134871;27;9365;-79
2023/09/29 10:17:43;;;;;;;;;0.67;0.67;;;;;;;;5124282;27;9422;-79
2023/09/29 10:20:19;;;;;;;;;1.00;1.00;;;;;;;;5124336;28;8799;-79
2023/09/29 10:22:46;;;;;;;;;0.67;0.67;;;;;;;;5122804;28;8794;-79
2023/09/29 10:25:19;;;;;;;;;0.00;0.00;;;;;;;;5124300;27;9409;-76
2023/09/29 10:27:49;;;;;;;;;2.00;0.67;;;;;;;;5122828;27;9086;-76
2023/09/29 10:30:17;;;;;;;;;1.00;0.00;;;;;;;;5125854;27;9446;-76
2023/09/29 10:32:47;;;;;;;;;0.33;0.33;;;;;;;;5136184;27;9053;-75
2023/09/29 10:35:19;;;;;;;;;1.67;1.00;;;;;;;;5145319;27;9120;-78
2023/09/29 10:37:54;;;;;;;;;2.00;1.00;;;;;;;;5145184;27;9121;-78
2023/09/29 10:40:27;;;;;;;;;2.00;0.67;;;;;;;;5144125;27;9400;-78
2023/09/29 10:42:54;;;;;;;;;2.00;0.33;;;;;;;;5141384;27;9057;-78
2023/09/29 10:45:28;;;;;;;;;1.33;1.33;;;;;;;;5136426;27;9170;-77
2023/09/29 10:47:59;;;;;;;;;0.00;0.00;;;;;;;;5128972;27;9265;-76
2023/09/29 10:50:25;;;;;;;;;0.67;0.67;;;;;;;;5133169;27;9295;-76
2023/09/29 10:52:51;;;;;;;;;1.00;1.00;;;;;;;;5142070;27;9333;-78
2023/09/29 10:55:16;;;;;;;;;3.00;0.00;;;;;;;;5124384;27;8791;-78
2023/09/29 10:57:42;;;;;;;;;2.00;1.00;;;;;;;;5123495;27;8791;-74
2023/09/29 11:00:09;;;;;;;;;0.00;0.00;;;;;;;;5126503;27;8871;-73
2023/09/29 11:02:36;;;;;;;;;2.00;1.00;;;;;;;;5122800;27;9165;-75
2023/09/29 11:05:04;;;;;;;;;1.00;1.00;;;;;;;;5122457;27;10050;-76
2023/09/29 11:07:30;;;;;;;;;2.00;0.67;;;;;;;;5121626;27;9072;-76
2023/09/29 11:09:59;;;;;;;;;0.67;0.67;;;;;;;;5122821;27;9161;-77
2023/09/29 11:12:27;;;;;;;;;3.00;2.00;;;;;;;;5120903;27;8799;-75
2023/09/29 11:14:53;;;;;;;;;0.00;0.00;;;;;;;;5120299;28;8938;-77
2023/09/29 11:17:18;;;;;;;;;1.00;0.33;;;;;;;;5121098;27;8976;-78
2023/09/29 11:19:54;;;;;;;;;3.00;0.00;;;;;;;;5121898;27;9917;-78
2023/09/29 11:22:20;;;;;;;;;2.00;1.00;;;;;;;;5124048;27;8755;-78
2023/09/29 11:24:48;;;;;;;;;1.00;1.00;;;;;;;;5123040;27;8875;-79
2023/09/29 11:27:14;;;;;;;;;4.33;2.00;;;;;;;;5121194;27;9148;-78
2023/09/29 11:29:40;;;;;;;;;0.00;0.00;;;;;;;;5122927;27;9263;-78
2023/09/29 11:32:05;;;;;;;;;1.00;1.00;;;;;;;;5121976;27;8844;-75
2023/09/29 11:34:31;;;;;;;;;1.00;0.00;;;;;;;;5120851;28;8906;-77
2023/09/29 11:36:57;;;;;;;;;0.00;0.00;;;;;;;;5123270;27;8767;-81
2023/09/29 11:39:22;;;;;;;;;1.67;0.67;;;;;;;;5121862;27;10031;-75
2023/09/29 11:41:48;;;;;;;;;2.00;0.00;;;;;;;;5123306;28;8767;-78
2023/09/29 11:44:14;;;;;;;;;3.00;0.33;;;;;;;;5132789;27;8757;-80
2023/09/29 11:46:39;;;;;;;;;1.67;1.00;;;;;;;;5137469;27;9260;-78
2023/09/29 11:49:05;;;;;;;;;1.00;1.00;;;;;;;;5122104;28;8799;-82
2023/09/29 11:51:30;;;;;;;;;1.33;1.33;;;;;;;;5131971;27;8808;-74
2023/09/29 11:53:56;;;;;;;;;2.33;1.00;;;;;;;;5138033;27;8849;-78
2023/09/29 11:56:21;;;;;;;;;3.00;1.00;;;;;;;;5110996;28;8827;-77
2023/09/29 11:58:47;;;;;;;;;1.00;1.00;;;;;;;;5118433;27;9962;-77
2023/09/29 12:01:12;;;;;;;;;1.00;1.00;;;;;;;;5122216;27;8810;-77
2023/09/29 12:03:38;;;;;;;;;1.67;1.67;;;;;;;;5137226;27;8809;-77
2023/09/29 12:06:03;;;;;;;;;1.00;0.00;;;;;;;;5144007;27;8761;-77
2023/09/29 12:08:29;;;;;;;;;2.00;2.00;;;;;;;;5136726;27;12099;-77
2023/09/29 12:10:55;;;;;;;;;2.00;2.00;;;;;;;;5142513;27;8816;-77
2023/09/29 12:13:20;;;;;;;;;2.67;1.33;;;;;;;;5143493;27;8780;-77
2023/09/29 12:15:45;;;;;;;;;4.00;1.00;;;;;;;;5123984;27;8812;-77
2023/09/29 12:18:11;;;;;;;;;1.00;1.00;;;;;;;;5128766;27;8787;-77
2023/09/29 12:20:38;;;;;;;;;3.33;2.00;;;;;;;;5135871;27;8865;-77
2023/09/29 12:23:06;;;;;;;;;3.33;1.67;;;;;;;;5121389;27;8824;-77
2023/09/29 12:25:31;;;;;;;;;4.67;2.00;;;;;;;;5122957;27;9855;-77
2023/09/29 12:27:57;;;;;;;;;3.00;0.67;;;;;;;;5120843;27;9131;-78
2023/09/29 12:30:22;;;;;;;;;2.33;1.33;;;;;;;;5129318;27;8850;-78
2023/09/29 12:32:47;;;;;;;;;0.67;0.67;;;;;;;;5130669;27;8785;-79
2023/09/29 12:35:13;;;;;;;;;3.67;2.00;;;;;;;;5129893;27;8803;-79
2023/09/29 12:37:38;;;;;;;;;0.67;0.67;;;;;;;;5126257;27;9582;-78
2023/09/29 12:40:11;;;;;;;;;4.67;2.00;;;;;;;;5113127;28;8826;-78
2023/09/29 12:42:36;;;;;;;;;1.00;1.00;;;;;;;;5125383;27;9708;-78
2023/09/29 12:45:02;;;;;;;;;1.33;1.00;;;;;;;;5135377;27;8988;-76
2023/09/29 12:47:27;;;;;;;;;1.67;1.67;;;;;;;;5127109;27;8792;-77
2023/09/29 12:49:53;;;;;;;;;3.33;1.33;;;;;;;;5130977;27;8826;-74
2023/09/29 12:52:18;;;;;;;;;1.00;1.00;;;;;;;;5132598;27;8816;-77
2023/09/29 12:54:45;;;;;;;;;2.00;1.00;;;;;;;;5121431;27;8845;-77
2023/09/29 12:57:10;;;;;;;;;2.00;1.67;;;;;;;;5117685;27;10136;-76
2023/09/29 12:59:36;;;;;;;;;3.67;1.67;;;;;;;;5120938;27;8960;-76
2023/09/29 13:02:05;;;;;;;;;1.00;0.00;;;;;;;;5122623;27;8856;-76
2023/09/29 13:04:31;;;;;;;;;2.00;1.00;;;;;;;;5126517;27;8728;-75
2023/09/29 13:06:58;;;;;;;;;5.00;2.33;;;;;;;;5124652;27;11206;-77
2023/09/29 13:09:23;;;;;;;;;2.67;2.00;;;;;;;;5147183;27;8729;-76
2023/09/29 13:11:50;;;;;;;;;3.00;3.00;;;;;;;;5138278;27;8897;-77
2023/09/29 13:14:16;;;;;;;;;4.67;2.67;;;;;;;;5126453;27;8781;-76
2023/09/29 13:16:41;;;;;;;;;3.33;1.00;;;;;;;;5125616;27;8917;-71
2023/09/29 13:19:06;;;;;;;;;1.00;1.00;;;;;;;;5116351;27;8821;-76
2023/09/29 13:21:33;;;;;;;;;2.33;2.33;;;;;;;;5113842;27;8861;-76
2023/09/29 13:23:59;;;;;;;;;3.50;1.50;;;;;;;;5140645;27;8790;-76
2023/09/29 13:26:24;;;;;;;;;1.00;1.00;;;;;;;;5124263;27;8883;-76
2023/09/29 13:28:50;;;;;;;;;0.67;0.67;;;;;;;;5127652;27;8934;-72
2023/09/29 13:31:15;;;;;;;;;3.33;1.67;;;;;;;;5117361;27;8804;-76
2023/09/29 13:33:40;;;;;;;;;2.67;0.33;;;;;;;;5121355;27;8814;-76
2023/09/29 13:36:06;;;;;;;;;3.00;1.00;;;;;;;;5114084;27;9798;-76
2023/09/29 13:38:31;;;;;;;;;3.00;1.00;;;;;;;;5138008;27;8801;-76
2023/09/29 13:40:57;;;;;;;;;4.67;1.67;;;;;;;;5125634;27;8835;-77
2023/09/29 13:43:24;;;;;;;;;2.00;0.33;;;;;;;;5121149;27;8857;-76
2023/09/29 13:45:49;;;;;;;;;1.75;1.50;;;;;;;;5123209;28;10126;-77
2023/09/29 13:48:16;;;;;;;;;3.00;1.00;;;;;;;;5125463;27;8817;-77
2023/09/29 13:50:41;;;;;;;;;1.00;1.00;;;;;;;;5132649;27;8807;-77
2023/09/29 13:53:06;;;;;;;;;2.00;2.00;;;;;;;;5134735;27;8799;-76
2023/09/29 13:55:32;;;;;;;;;0.67;0.00;;;;;;;;5138826;27;8839;-77
2023/09/29 13:58:00;;;;;;;;;5.00;3.00;;;;;;;;5137242;27;8811;-77
2023/09/29 14:00:25;;;;;;;;;1.50;1.00;;;;;;;;5131126;27;8795;-77
2023/09/29 14:02:52;;;;;;;;;4.00;1.67;;;;;;;;5134473;27;9542;-77
2023/09/29 14:05:18;;;;;;;;;0.25;0.25;;;;;;;;5127327;27;8794;-76
2023/09/29 14:07:43;;;;;;;;;3.25;0.00;;;;;;;;5130122;27;8931;-77
2023/09/29 14:10:09;;;;;;;;;1.00;1.00;;;;;;;;5143655;27;8804;-77
2023/09/29 14:12:37;;;;;;;;;2.33;2.00;;;;;;;;5129727;27;8886;-77
2023/09/29 14:15:07;;;;;;;;;4.25;1.75;;;;;;;;5109753;28;10388;-77
2023/09/29 14:17:33;;;;;;;;;0.75;0.00;;;;;;;;5123238;27;8793;-77
2023/09/29 14:19:58;;;;;;;;;1.00;1.00;;;;;;;;5127078;27;8793;-77
2023/09/29 14:22:23;;;;;;;;;3.00;1.00;;;;;;;;5135542;27;8783;-77
2023/09/29 14:24:48;;;;;;;;;1.33;0.33;;;;;;;;5142279;27;9910;-77
2023/09/29 14:27:14;;;;;;;;;1.33;1.00;;;;;;;;5143934;27;8815;-79
2023/09/29 14:29:39;;;;;;;;;3.00;1.33;;;;;;;;5143099;27;8826;-75
2023/09/29 14:32:05;;;;;;;;;1.33;0.33;;;;;;;;5144430;27;8789;-77
2023/09/29 14:34:30;;;;;;;;;2.00;1.33;;;;;;;;5144538;27;8819;-76
2023/09/29 14:36:55;;;;;;;;;3.33;2.00;;;;;;;;5144567;27;8784;-76
2023/09/29 14:39:20;;;;;;;;;1.67;0.67;;;;;;;;5124718;27;8807;-75
2023/09/29 14:41:47;;;;;;;;;6.00;2.00;;;;;;;;5121377;28;8826;-76
2023/09/29 14:44:13;;;;;;;;;2.50;1.00;;;;;;;;5121711;27;10029;-76
2023/09/29 14:46:39;;;;;;;;;5.25;2.25;;;;;;;;5114735;27;8832;-76
2023/09/29 14:49:10;;;;;;;;;1.67;1.67;;;;;;;;5130248;27;8773;-77
2023/09/29 14:51:40;;;;;;;;;2.50;1.00;;;;;;;;5137373;27;8769;-76